Pagrindinis puslapis
METAR-TAF:

METAR-TAF

Oro uostai :

Havana, Kuba

platuma: 22-59N, ilguma: 082-24W, Aukštis: 59 m

Dabartinis oras

Ataskaita buvo paskelbta 18 minutes, ne 09:54 UTC
Ramus vėjas
Temperatūra 15°C
Drėgmė 100%
Slėgis 1021 hPa
Matomumas: 2000 m
Mažai debesys ne aukštis 3000 ft
Sekli rūkas

METAR: MUHA 070954Z 00000KT 7000 2000E MIFG FEW030 15/15 Q1021

Laikas: 05:12 (10:12 UTC)

Prognozė

Ataskaita buvo paskelbta 5 valandos ir 12 minutes, ne 05:00 UTC
Prognozė galioja nuo 07 metu 06 UTC su 08 metu 06 UTC
Vėjas 3 kt nuo kintamojo kryptimis
Matomumas: 9000 m
Mažai debesys ne aukštis 3000 ft
Tapsmas
nuo 07 metu 15 UTC su 07 metu 17 UTC
Vėjas 11 kt iš Rytų/Šiaurės Rytų
Tapsmas
nuo 08 metu 00 UTC su 08 metu 02 UTC
Vėjas 3 kt nuo kintamojo kryptimis

TAF: MUHA 070500Z 0706/0806 VRB03KT 9000 FEW030 BECMG 0715/0717 06011KT BECMG 0800/0802 VRB03KT

Orai ataskaitas ir orų prognozės (METAR, TAF).

turimą stotys yra geltonos ir raudonos taškus žemėlapyje.

Perkelti pele per norėdami pamatyti stoties vardą.

Tada spustelėkite, norėdami matyti oro stebėjimo ir prognozės.

Norėdami pakeisti žemėlapį: spustelėkite ant žalios mygtukų su juodo kryžiaus žemyn,; žalią mygtuką su brūkšneliu, jei norite nutolinti; arba žalių rodyklių gretimoms žemėlapius.


METAR-TAF: